createdAt,value
2018-07-23T00:00:08.123Z,12.80
2018-07-23T00:02:34.928Z,13.87
2018-07-23T00:05:02.572Z,13.40
2018-07-23T00:07:29.376Z,13.57
2018-07-23T00:09:56.136Z,14.33
2018-07-23T00:12:23.083Z,15.10
2018-07-23T00:14:49.867Z,12.87
2018-07-23T00:17:16.961Z,15.00
2018-07-23T00:19:43.737Z,15.00
2018-07-23T00:22:10.701Z,13.97
2018-07-23T00:24:37.497Z,13.47
2018-07-23T00:27:04.340Z,14.23
2018-07-23T00:29:31.496Z,13.00
2018-07-23T00:31:58.268Z,13.87
2018-07-23T00:34:25.023Z,13.63
2018-07-23T00:36:51.772Z,13.83
2018-07-23T00:39:18.566Z,16.67
2018-07-23T00:41:45.432Z,14.07
2018-07-23T00:44:12.241Z,11.57
2018-07-23T00:46:39.075Z,12.73
2018-07-23T00:49:06.004Z,14.20
2018-07-23T00:51:32.765Z,13.40
2018-07-23T00:53:59.540Z,16.85
2018-07-23T00:56:26.431Z,13.27
2018-07-23T00:58:53.294Z,12.73
2018-07-23T01:01:20.048Z,11.37
2018-07-23T01:03:47.011Z,12.77
2018-07-23T01:06:13.772Z,11.70
2018-07-23T01:08:40.503Z,11.33
2018-07-23T01:11:07.292Z,11.10
2018-07-23T01:13:34.028Z,10.80
2018-07-23T01:16:01.242Z,11.97
2018-07-23T01:18:28.244Z,11.53
2018-07-23T01:20:55.128Z,12.82
2018-07-23T01:23:21.965Z,12.37
2018-07-23T01:25:49.212Z,12.47
2018-07-23T01:28:16.147Z,11.70
2018-07-23T01:30:43.209Z,11.67
2018-07-23T01:33:10.055Z,11.87
2018-07-23T01:35:36.932Z,13.32
2018-07-23T01:38:03.868Z,12.63
2018-07-23T01:40:30.708Z,11.40
2018-07-23T01:42:57.633Z,11.77
2018-07-23T01:45:24.409Z,11.70
2018-07-23T01:47:51.228Z,11.50
2018-07-23T01:50:18.042Z,11.77
2018-07-23T01:52:45.147Z,11.10
2018-07-23T01:55:11.872Z,11.27
2018-07-23T01:57:38.756Z,11.20
2018-07-23T02:00:05.886Z,11.20
2018-07-23T02:02:32.700Z,10.77
2018-07-23T02:04:59.440Z,12.75
2018-07-23T02:07:26.244Z,11.27
2018-07-23T02:09:53.312Z,11.87
2018-07-23T02:12:20.155Z,11.67
2018-07-23T02:14:46.875Z,11.37
2018-07-23T02:17:13.652Z,11.53
2018-07-23T02:19:40.392Z,11.00
2018-07-23T02:22:07.255Z,10.50
2018-07-23T02:24:34.020Z,10.90
2018-07-23T02:27:00.817Z,10.40
2018-07-23T02:29:27.848Z,10.33
2018-07-23T02:31:54.567Z,11.43
2018-07-23T02:34:21.371Z,10.40
2018-07-23T02:36:48.245Z,12.78
2018-07-23T02:39:15.025Z,11.57
2018-07-23T02:41:41.807Z,11.37
2018-07-23T02:44:08.676Z,9.43
2018-07-23T02:46:35.480Z,10.70
2018-07-23T02:49:02.476Z,10.40
2018-07-23T02:51:29.316Z,9.83
2018-07-23T02:53:56.205Z,11.07
2018-07-23T02:56:23.028Z,12.93
2018-07-23T02:58:49.797Z,11.13
2018-07-23T03:01:16.527Z,10.07
2018-07-23T03:03:43.346Z,12.25
2018-07-23T03:06:10.124Z,11.10
2018-07-23T03:08:36.919Z,9.63
2018-07-23T03:11:03.862Z,11.75
2018-07-23T03:13:30.700Z,11.90
2018-07-23T03:15:57.527Z,10.90
2018-07-23T03:18:24.336Z,12.75
2018-07-23T03:20:51.213Z,11.20
2018-07-23T03:23:18.082Z,10.90
2018-07-23T03:25:44.927Z,9.60
2018-07-23T03:28:11.684Z,10.00
2018-07-23T03:30:38.572Z,10.30
2018-07-23T03:33:05.596Z,9.53
2018-07-23T03:35:32.517Z,10.83
2018-07-23T03:37:59.270Z,11.80
2018-07-23T03:40:26.102Z,10.80
2018-07-23T03:42:52.910Z,9.93
2018-07-23T03:45:19.911Z,12.78
2018-07-23T03:47:46.692Z,13.50
2018-07-23T03:50:13.455Z,13.48
2018-07-23T03:52:40.207Z,12.10
2018-07-23T03:55:06.983Z,11.07
2018-07-23T03:57:33.718Z,12.57
2018-07-23T04:00:00.448Z,12.00
2018-07-23T04:02:27.214Z,11.23
2018-07-23T04:04:53.963Z,11.57
2018-07-23T04:07:20.741Z,11.60
2018-07-23T04:09:47.460Z,14.05
2018-07-23T04:12:14.223Z,12.10
2018-07-23T04:14:40.952Z,12.10
2018-07-23T04:17:07.720Z,12.13
2018-07-23T04:19:34.463Z,13.03
2018-07-23T04:22:01.956Z,13.30
2018-07-23T04:24:28.726Z,12.60
2018-07-23T04:26:55.484Z,13.27
2018-07-23T04:29:22.243Z,12.67
2018-07-23T04:31:49.005Z,13.63
2018-07-23T04:34:15.759Z,14.30
2018-07-23T04:36:42.528Z,14.40
2018-07-23T04:39:09.252Z,14.73
2018-07-23T04:41:36.483Z,14.23
2018-07-23T04:44:03.239Z,16.03
2018-07-23T04:46:30.079Z,16.10
2018-07-23T04:48:56.803Z,16.10
2018-07-23T04:51:23.531Z,17.27
2018-07-23T04:53:50.387Z,17.17
2018-07-23T04:56:17.131Z,17.53
2018-07-23T04:58:43.887Z,20.70
2018-07-23T05:01:11.033Z,19.90
2018-07-23T05:03:37.784Z,18.20
2018-07-23T05:06:04.604Z,19.23
2018-07-23T05:08:31.409Z,17.40
2018-07-23T05:10:58.091Z,19.20
2018-07-23T05:13:24.849Z,17.63
2018-07-23T05:15:51.623Z,19.00
2018-07-23T05:18:18.332Z,17.53
2018-07-23T05:20:45.065Z,18.17
2018-07-23T05:23:12.020Z,19.07
2018-07-23T05:25:40.099Z,18.50
2018-07-23T05:28:06.831Z,17.33
2018-07-23T05:30:33.595Z,18.90
2018-07-23T05:33:00.324Z,17.37
2018-07-23T05:35:27.091Z,18.73
2018-07-23T05:37:53.819Z,17.80
2018-07-23T05:40:20.596Z,17.40
2018-07-23T05:42:47.367Z,16.03
2018-07-23T05:45:14.129Z,15.67
2018-07-23T05:47:40.871Z,16.03
2018-07-23T05:50:08.008Z,16.43
2018-07-23T05:52:34.861Z,14.80
2018-07-23T05:55:02.367Z,15.93
2018-07-23T05:57:29.134Z,18.75
2018-07-23T05:59:55.899Z,17.87
2018-07-23T06:02:22.635Z,16.57
2018-07-23T06:04:49.390Z,19.23
2018-07-23T06:07:16.119Z,15.10
2018-07-23T06:09:42.897Z,15.50
2018-07-23T06:12:09.647Z,14.27
2018-07-23T06:14:36.376Z,17.48
2018-07-23T06:17:03.147Z,17.40
2018-07-23T06:19:29.879Z,14.03
2018-07-23T06:21:56.815Z,14.53
2018-07-23T06:24:23.616Z,16.13
2018-07-23T06:26:50.379Z,15.53
2018-07-23T06:29:17.119Z,16.10
2018-07-23T06:31:43.888Z,15.67
2018-07-23T06:34:10.632Z,16.53
2018-07-23T06:36:37.475Z,17.27
2018-07-23T06:39:06.931Z,16.37
2018-07-23T06:41:33.696Z,15.90
2018-07-23T06:44:00.435Z,17.60
2018-07-23T06:46:27.220Z,17.20
2018-07-23T06:48:54.100Z,15.93
2018-07-23T06:51:20.884Z,16.93
2018-07-23T06:53:47.642Z,15.97
2018-07-23T06:56:14.543Z,20.02
2018-07-23T06:58:41.312Z,18.23
2018-07-23T07:01:08.051Z,16.97
2018-07-23T07:03:34.983Z,21.05
2018-07-23T07:06:02.469Z,19.07
2018-07-23T07:08:29.280Z,17.17
2018-07-23T07:10:56.143Z,17.10
2018-07-23T07:13:22.923Z,18.75
2018-07-23T07:15:49.682Z,18.37
2018-07-23T07:18:16.448Z,16.33
2018-07-23T07:20:43.194Z,18.10
2018-07-23T07:23:10.020Z,20.40
2018-07-23T07:25:36.860Z,17.53
2018-07-23T07:28:04.221Z,19.10
2018-07-23T07:30:30.951Z,20.10
2018-07-23T07:32:57.736Z,21.97
2018-07-23T07:35:24.464Z,20.50
2018-07-23T07:37:51.266Z,18.93
2018-07-23T07:40:18.012Z,18.77
2018-07-23T07:42:44.783Z,17.33
2018-07-23T07:45:11.659Z,18.43
2018-07-23T07:47:38.398Z,19.43
2018-07-23T07:50:05.191Z,23.25
2018-07-23T07:52:32.012Z,21.10
2018-07-23T07:54:58.787Z,20.97
2018-07-23T07:57:25.677Z,19.30
2018-07-23T07:59:52.661Z,19.35
2018-07-23T08:02:19.439Z,21.10
2018-07-23T08:04:46.296Z,19.37
2018-07-23T08:07:13.081Z,20.87
2018-07-23T08:09:39.828Z,20.33
2018-07-23T08:12:06.639Z,19.33
2018-07-23T08:14:33.439Z,19.00
2018-07-23T08:17:00.284Z,20.50
2018-07-23T08:19:27.072Z,21.65
2018-07-23T08:21:53.790Z,20.70
2018-07-23T08:24:20.956Z,21.00
2018-07-23T08:26:47.867Z,22.17
2018-07-23T08:29:14.615Z,17.53
2018-07-23T08:31:41.464Z,20.73
2018-07-23T08:34:08.163Z,18.63
2018-07-23T08:36:35.140Z,18.77
2018-07-23T08:39:03.200Z,19.30
2018-07-23T08:41:29.900Z,22.45
2018-07-23T08:43:56.679Z,22.32
2018-07-23T08:46:23.733Z,21.10
2018-07-23T08:48:50.498Z,19.87
2018-07-23T08:51:17.306Z,21.15
2018-07-23T08:53:44.128Z,21.15
2018-07-23T08:56:10.970Z,22.93
2018-07-23T08:58:37.671Z,21.00
2018-07-23T09:01:04.519Z,20.97
2018-07-23T09:03:31.284Z,21.00
2018-07-23T09:05:58.047Z,21.33
2018-07-23T09:08:24.908Z,20.05
2018-07-23T09:10:51.664Z,20.70
2018-07-23T09:13:18.633Z,20.65
2018-07-23T09:15:45.451Z,20.45
2018-07-23T09:18:12.327Z,23.65
2018-07-23T09:20:39.059Z,22.70
2018-07-23T09:23:05.999Z,21.82
2018-07-23T09:25:38.687Z,21.37
2018-07-23T09:28:05.497Z,23.73
2018-07-23T09:30:41.044Z,26.73
2018-07-23T09:33:08.622Z,27.27
2018-07-23T09:35:35.464Z,21.60
2018-07-23T09:38:03.280Z,20.77
2018-07-23T09:40:30.061Z,24.85
2018-07-23T09:42:56.843Z,22.80
2018-07-23T09:45:23.762Z,28.50
2018-07-23T09:47:50.552Z,25.35
2018-07-23T09:50:17.413Z,22.42
2018-07-23T09:52:44.195Z,24.30
2018-07-23T09:55:11.182Z,22.25
2018-07-23T09:57:37.960Z,24.12
2018-07-23T10:00:04.727Z,24.40
2018-07-23T10:02:31.492Z,23.27
2018-07-23T10:04:58.357Z,24.32
2018-07-23T10:07:25.118Z,23.52
2018-07-23T10:09:51.951Z,28.05
2018-07-23T10:12:18.899Z,25.97
2018-07-23T10:14:47.575Z,24.82
2018-07-23T10:17:14.356Z,25.25
2018-07-23T10:19:41.197Z,26.17
2018-07-23T10:22:08.105Z,25.48
2018-07-23T10:24:34.915Z,26.68
2018-07-23T10:27:02.274Z,25.57
2018-07-23T10:29:29.062Z,26.97
2018-07-23T10:31:56.051Z,25.72
2018-07-23T10:34:23.047Z,25.55
2018-07-23T10:36:49.789Z,27.80
2018-07-23T10:39:16.576Z,25.65
2018-07-23T10:41:43.408Z,28.25
2018-07-23T10:44:10.764Z,27.37
2018-07-23T10:46:37.567Z,24.40
2018-07-23T10:49:04.496Z,24.77
2018-07-23T10:51:31.261Z,26.50
2018-07-23T10:53:58.557Z,24.55
2018-07-23T10:56:25.373Z,26.95
2018-07-23T10:58:52.118Z,24.32
2018-07-23T11:01:19.827Z,26.70
2018-07-23T11:03:46.672Z,28.65
2018-07-23T11:06:13.459Z,26.05
2018-07-23T11:08:41.045Z,27.32
2018-07-23T11:11:07.835Z,26.02
2018-07-23T11:13:34.566Z,28.10
2018-07-23T11:16:02.052Z,28.92
2018-07-23T11:18:28.831Z,27.32
2018-07-23T11:20:55.660Z,25.55
2018-07-23T11:23:22.465Z,24.87
2018-07-23T11:25:49.255Z,25.40
2018-07-23T11:28:15.994Z,25.27
2018-07-23T11:30:42.880Z,24.07
2018-07-23T11:33:09.643Z,25.12
2018-07-23T11:35:36.395Z,25.95
2018-07-23T11:38:03.491Z,24.67
2018-07-23T11:40:30.243Z,24.07
2018-07-23T11:42:57.027Z,22.05
2018-07-23T11:45:23.861Z,23.35
2018-07-23T11:47:50.585Z,21.52
2018-07-23T11:50:17.332Z,22.45
2018-07-23T11:52:44.099Z,22.85
2018-07-23T11:55:10.936Z,22.45
2018-07-23T11:57:37.688Z,20.43
2018-07-23T12:00:04.563Z,21.33
2018-07-23T12:02:31.341Z,23.02
2018-07-23T12:04:58.095Z,21.02
2018-07-23T12:07:24.904Z,21.93
2018-07-23T12:09:51.642Z,20.75
2018-07-23T12:12:18.376Z,22.60
2018-07-23T12:14:45.141Z,21.05
2018-07-23T12:17:11.918Z,21.02
2018-07-23T12:19:38.731Z,20.82
2018-07-23T12:22:05.477Z,21.20
2018-07-23T12:24:32.343Z,21.42
2018-07-23T12:26:59.179Z,21.62
2018-07-23T12:29:25.964Z,21.77
2018-07-23T12:31:52.723Z,26.37
2018-07-23T12:34:19.487Z,21.00
2018-07-23T12:36:46.279Z,21.00
2018-07-23T12:39:13.149Z,20.35
2018-07-23T12:41:40.323Z,20.68
2018-07-23T12:44:07.148Z,20.37
2018-07-23T12:46:33.957Z,20.70
2018-07-23T12:49:00.715Z,23.50
2018-07-23T12:51:27.451Z,20.95
2018-07-23T12:53:55.412Z,21.15
2018-07-23T12:56:22.290Z,21.87
2018-07-23T12:58:51.098Z,24.98
2018-07-23T13:01:17.892Z,23.22
2018-07-23T13:03:44.672Z,21.17
2018-07-23T13:06:11.500Z,22.37
2018-07-23T13:08:38.271Z,20.85
2018-07-23T13:11:05.059Z,24.77
2018-07-23T13:13:31.796Z,22.13
2018-07-23T13:15:58.619Z,22.20
2018-07-23T13:18:25.636Z,20.52
2018-07-23T13:20:52.450Z,20.40
2018-07-23T13:23:19.194Z,23.40
2018-07-23T13:25:46.085Z,22.00
2018-07-23T13:28:12.867Z,22.13
2018-07-23T13:30:39.740Z,22.00
2018-07-23T13:33:06.588Z,24.95
2018-07-23T13:35:33.440Z,27.00
2018-07-23T13:38:00.268Z,22.55
2018-07-23T13:40:26.987Z,20.72
2018-07-23T13:42:53.797Z,21.27
2018-07-23T13:45:20.653Z,20.77
2018-07-23T13:47:47.451Z,21.52
2018-07-23T13:50:14.208Z,25.90
2018-07-23T13:52:40.978Z,21.27
2018-07-23T13:55:07.967Z,20.95
2018-07-23T13:57:35.125Z,26.80
2018-07-23T14:00:01.864Z,22.22
2018-07-23T14:02:31.168Z,22.48
2018-07-23T14:04:58.410Z,21.27
2018-07-23T14:07:25.295Z,19.02
2018-07-23T14:09:52.525Z,19.92
2018-07-23T14:12:19.284Z,19.20
2018-07-23T14:14:46.092Z,20.00
2018-07-23T14:17:12.865Z,18.98
2018-07-23T14:19:39.603Z,23.73
2018-07-23T14:22:06.484Z,19.57
2018-07-23T14:24:33.278Z,23.73
2018-07-23T14:27:00.017Z,20.02
2018-07-23T14:29:26.807Z,18.57
2018-07-23T14:31:53.584Z,17.95
2018-07-23T14:34:20.786Z,18.12
2018-07-23T14:36:47.627Z,18.90
2018-07-23T14:39:14.391Z,18.23
2018-07-23T14:41:41.268Z,16.97
2018-07-23T14:44:09.988Z,17.12
2018-07-23T14:46:37.260Z,16.85
2018-07-23T14:49:04.179Z,17.73
2018-07-23T14:51:30.905Z,16.27
2018-07-23T14:53:57.660Z,17.00
2018-07-23T14:56:24.393Z,18.75
2018-07-23T14:58:51.159Z,16.52
2018-07-23T15:01:17.928Z,17.02
2018-07-23T15:03:44.696Z,15.83
2018-07-23T15:06:11.419Z,14.83
2018-07-23T15:08:38.139Z,15.00
2018-07-23T15:11:05.037Z,16.30
2018-07-23T15:13:31.760Z,22.45
2018-07-23T15:15:58.519Z,13.93
2018-07-23T15:18:25.251Z,13.15
2018-07-23T15:20:52.022Z,12.90
2018-07-23T15:23:18.992Z,15.45
2018-07-23T15:25:45.812Z,14.80
2018-07-23T15:28:12.599Z,14.95
2018-07-23T15:30:42.024Z,14.65
2018-07-23T15:33:08.811Z,14.05
2018-07-23T15:35:35.554Z,13.83
2018-07-23T15:38:02.293Z,13.70
2018-07-23T15:40:29.059Z,14.45
2018-07-23T15:42:55.780Z,14.75
2018-07-23T15:45:22.676Z,16.05
2018-07-23T15:47:49.327Z,16.42
2018-07-23T15:50:16.080Z,15.65
2018-07-23T15:52:42.815Z,16.17
2018-07-23T15:55:09.708Z,16.02
2018-07-23T15:57:36.527Z,17.17
2018-07-23T16:00:03.668Z,17.52
2018-07-23T16:02:30.450Z,17.75
2018-07-23T16:04:57.170Z,17.17
2018-07-23T16:07:23.923Z,16.73
2018-07-23T16:09:50.650Z,17.45
2018-07-23T16:12:17.399Z,17.82
2018-07-23T16:14:44.130Z,16.93
2018-07-23T16:17:10.908Z,17.02
2018-07-23T16:19:37.890Z,20.55
2018-07-23T16:22:04.654Z,16.62
2018-07-23T16:24:31.415Z,15.90
2018-07-23T16:26:58.179Z,16.97
2018-07-23T16:29:24.928Z,16.82
2018-07-23T16:31:51.690Z,17.17
2018-07-23T16:34:18.435Z,16.52
2018-07-23T16:36:45.212Z,17.80
2018-07-23T16:39:13.035Z,16.85
2018-07-23T16:41:39.755Z,15.75
2018-07-23T16:44:07.055Z,16.80
2018-07-23T16:46:33.838Z,17.48
2018-07-23T16:49:00.663Z,16.85
2018-07-23T16:51:27.422Z,17.10
2018-07-23T16:53:54.194Z,17.20
2018-07-23T16:56:20.920Z,17.40
2018-07-23T16:58:47.670Z,17.30
2018-07-23T17:01:14.394Z,16.62
2018-07-23T17:03:41.158Z,16.10
2018-07-23T17:06:07.881Z,16.30
2018-07-23T17:08:34.642Z,16.23
2018-07-23T17:11:01.953Z,17.77
2018-07-23T17:13:28.711Z,18.30
2018-07-23T17:15:55.499Z,16.65
2018-07-23T17:18:22.282Z,16.20
2018-07-23T17:20:48.995Z,16.37
2018-07-23T17:23:15.716Z,16.15
2018-07-23T17:25:42.504Z,15.48
2018-07-23T17:28:09.221Z,17.05
2018-07-23T17:30:36.007Z,16.30
2018-07-23T17:33:02.731Z,17.87
2018-07-23T17:35:29.524Z,16.17
2018-07-23T17:37:56.268Z,16.97
2018-07-23T17:40:23.022Z,16.42
2018-07-23T17:42:49.747Z,17.35
2018-07-23T17:45:16.519Z,17.02
2018-07-23T17:47:43.222Z,18.40
2018-07-23T17:50:09.971Z,17.05
2018-07-23T17:52:36.705Z,17.27
2018-07-23T17:55:03.758Z,16.20
2018-07-23T17:57:30.423Z,19.70
2018-07-23T17:59:57.174Z,17.85
2018-07-23T18:02:23.890Z,22.45
2018-07-23T18:04:50.638Z,20.37
2018-07-23T18:07:17.395Z,19.37
2018-07-23T18:09:44.397Z,18.40
2018-07-23T18:12:11.151Z,18.12
2018-07-23T18:14:37.887Z,17.90
2018-07-23T18:17:04.640Z,17.85
2018-07-23T18:19:31.415Z,17.67
2018-07-23T18:21:58.167Z,23.42
2018-07-23T18:24:24.948Z,20.45
2018-07-23T18:26:51.687Z,19.23
2018-07-23T18:29:18.403Z,19.92
2018-07-23T18:31:45.177Z,18.70
2018-07-23T18:34:11.896Z,19.23
2018-07-23T18:36:38.674Z,20.37
2018-07-23T18:39:07.907Z,24.55
2018-07-23T18:41:34.747Z,20.82
2018-07-23T18:44:01.523Z,21.75
2018-07-23T18:46:28.291Z,24.75
2018-07-23T18:49:23.854Z,24.27
2018-07-23T18:51:51.727Z,26.52
2018-07-23T18:54:20.126Z,30.45
2018-07-23T18:56:49.338Z,32.73
2018-07-23T18:59:16.434Z,36.33
2018-07-23T19:01:43.164Z,34.05
2018-07-23T19:04:10.134Z,27.75
2018-07-23T19:06:37.166Z,25.23
2018-07-23T19:09:07.102Z,24.95
2018-07-23T19:11:33.838Z,25.08
2018-07-23T19:14:00.703Z,33.10
2018-07-23T19:16:27.351Z,35.03
2018-07-23T19:18:54.143Z,31.05
2018-07-23T19:21:20.935Z,29.45
2018-07-23T19:23:48.679Z,33.78
2018-07-23T19:26:15.455Z,31.93
2018-07-23T19:28:42.272Z,30.80
2018-07-23T19:31:08.990Z,33.35
2018-07-23T19:33:35.745Z,24.85
2018-07-23T19:36:02.503Z,32.03
2018-07-23T19:38:29.219Z,28.27
2018-07-23T19:40:56.016Z,27.95
2018-07-23T19:43:22.759Z,28.75
2018-07-23T19:45:49.531Z,29.48
2018-07-23T19:48:16.273Z,25.77
2018-07-23T19:50:43.059Z,23.62
2018-07-23T19:53:09.911Z,24.07
2018-07-23T19:55:36.654Z,23.77
2018-07-23T19:58:03.399Z,29.92
2018-07-23T20:00:30.196Z,24.25
2018-07-23T20:02:56.915Z,23.90
2018-07-23T20:05:23.732Z,23.73
2018-07-23T20:07:50.427Z,24.30
2018-07-23T20:10:17.143Z,23.18
2018-07-23T20:12:43.894Z,23.75
2018-07-23T20:15:10.649Z,20.52
2018-07-23T20:17:37.406Z,21.93
2018-07-23T20:20:05.595Z,22.85
2018-07-23T20:22:32.404Z,21.45
2018-07-23T20:24:59.158Z,20.90
2018-07-23T20:27:25.945Z,19.12
2018-07-23T20:29:52.696Z,16.40
2018-07-23T20:32:19.576Z,17.50
2018-07-23T20:34:46.342Z,16.90
2018-07-23T20:37:13.087Z,13.38
2018-07-23T20:39:39.819Z,12.35
2018-07-23T20:42:06.579Z,13.95
2018-07-23T20:44:33.366Z,13.30
2018-07-23T20:47:00.091Z,13.62
2018-07-23T20:49:26.970Z,13.80
2018-07-23T20:51:53.952Z,14.13
2018-07-23T20:54:20.756Z,13.48
2018-07-23T20:56:47.706Z,14.20
2018-07-23T20:59:14.423Z,14.07
2018-07-23T21:01:41.201Z,15.27
2018-07-23T21:04:08.022Z,21.30
2018-07-23T21:06:34.985Z,19.77
2018-07-23T21:09:02.507Z,19.82
2018-07-23T21:11:29.319Z,15.37
2018-07-23T21:13:56.138Z,12.90
2018-07-23T21:16:22.865Z,14.00
2018-07-23T21:18:49.675Z,12.90
2018-07-23T21:21:16.466Z,12.27
2018-07-23T21:23:43.295Z,12.37
2018-07-23T21:26:10.108Z,12.10
2018-07-23T21:28:36.873Z,13.83
2018-07-23T21:31:03.681Z,12.97
2018-07-23T21:33:30.495Z,12.47
2018-07-23T21:35:57.760Z,13.63
2018-07-23T21:38:24.539Z,13.78
2018-07-23T21:40:51.303Z,14.33
2018-07-23T21:43:18.160Z,14.27
2018-07-23T21:45:44.934Z,14.97
2018-07-23T21:48:11.694Z,19.50
2018-07-23T21:50:38.459Z,14.97
2018-07-23T21:53:05.289Z,15.63
2018-07-23T21:55:32.162Z,21.33
2018-07-23T21:57:58.908Z,15.72
2018-07-23T22:00:25.674Z,15.27
2018-07-23T22:02:52.493Z,14.40
2018-07-23T22:05:19.316Z,24.43
2018-07-23T22:07:46.099Z,18.57
2018-07-23T22:10:12.931Z,15.43
2018-07-23T22:12:39.726Z,17.20
2018-07-23T22:15:08.117Z,16.53
2018-07-23T22:17:34.983Z,16.45
2018-07-23T22:20:01.828Z,15.05
2018-07-23T22:22:28.663Z,16.50
2018-07-23T22:24:55.482Z,14.57
2018-07-23T22:27:22.414Z,14.33
2018-07-23T22:29:49.218Z,17.15
2018-07-23T22:32:16.015Z,15.32
2018-07-23T22:34:42.776Z,13.78
2018-07-23T22:37:09.595Z,14.90
2018-07-23T22:39:36.339Z,14.47
2018-07-23T22:42:03.269Z,14.58
2018-07-23T22:44:30.011Z,15.30
2018-07-23T22:46:56.844Z,14.33
2018-07-23T22:49:23.686Z,13.83
2018-07-23T22:51:50.542Z,15.50
2018-07-23T22:54:17.350Z,14.30
2018-07-23T22:56:44.160Z,18.17
2018-07-23T22:59:10.941Z,15.23
2018-07-23T23:01:38.008Z,16.80
2018-07-23T23:04:04.741Z,21.57
2018-07-23T23:06:31.562Z,18.73
2018-07-23T23:08:58.405Z,18.63
2018-07-23T23:11:25.146Z,18.60
2018-07-23T23:13:52.055Z,19.23
2018-07-23T23:16:18.815Z,20.17
2018-07-23T23:18:45.676Z,19.17
2018-07-23T23:21:12.482Z,20.02
2018-07-23T23:23:39.267Z,19.67
2018-07-23T23:26:06.189Z,16.27
2018-07-23T23:28:33.048Z,17.75
2018-07-23T23:30:59.873Z,15.72
2018-07-23T23:33:26.675Z,16.17
2018-07-23T23:35:53.521Z,20.60
2018-07-23T23:38:20.287Z,15.88
2018-07-23T23:40:47.083Z,15.80
2018-07-23T23:43:13.978Z,15.60
2018-07-23T23:45:40.771Z,14.20
2018-07-23T23:48:07.559Z,13.87
2018-07-23T23:50:34.331Z,14.87
2018-07-23T23:53:01.543Z,14.50
2018-07-23T23:55:28.366Z,14.20
2018-07-23T23:57:55.143Z,16.85
